Accueil
METAR-TAF:

METAR-TAF

Aéroports :

Le Touquet, France

Aéroport du Touquet-Côte d'Opale

latitude: 50-30-53N, longitude: 001-37-39E, altitude: 6 m

Observation

Le bulletin a été fait il y a 39 minutes, à 04:30 UTC
Vent 3 kt de sud-est
Température 0°C
Humidité 100%
Pression 1024 hPa
Visibilité: 0300 m
brouillard givrant

METAR: LFAT 180430Z AUTO 14003KT 0300 R13/0375N FZFG VV/// M00/M00 Q1024

Heure: 06:09 (05:09 UTC)

Prévision

Le bulletin a été fait il y a 15 heures et 9 minutes, à 14:00 UTC
Prévision valable du 17 à 15 UTC au 17 à 24 UTC
Vent 8 kt de nord/nord-ouest
Visibilité 10 km ou plus
pas de nuages en-dessous de 1500 mètres et pas de cumulonimbus.
Evoluant progressivement
du 17 à 16 UTC au 17 à 18 UTC
Vent 2 kt de direction variable

TAF: LFAT 171400Z 1715/1724 33008KT CAVOK BECMG 1716/1718 VRB02KT

Observations et prévisions météorologiques de plus de 4000 aéroports (messages METAR et TAF).

Les stations disponibles sont représentées par des disques jaunes et rouges sur la carte.

Passer la souris dessus pour voir le nom de la station.

Cliquer dessus pour voir les observations et prévisions météorologiques.

Pour changer de carte: cliquez sur les boutons verts avec une croix noire pour zoomer, sur le bouton vert avec un tiret pour effectuer un zoom arrière, ou sur les flèches vertes pour les cartes adjacentes.


METAR-TAF: